createdAt,value
2022-12-16T00:01:51.676Z,99520.00
2022-12-16T00:06:54.911Z,99527.66
2022-12-16T00:11:57.790Z,99537.22
2022-12-16T00:17:01.874Z,99533.88
2022-12-16T00:22:04.651Z,99535.97
2022-12-16T00:27:07.444Z,99538.03
2022-12-16T00:32:12.918Z,99520.00
2022-12-16T00:37:15.620Z,99517.66
2022-12-16T00:42:18.310Z,99516.00
2022-12-16T00:47:22.385Z,99527.06
2022-12-16T00:52:25.139Z,99530.94
2022-12-16T00:57:27.843Z,99536.44
2022-12-16T01:02:32.021Z,99550.47
2022-12-16T01:07:35.163Z,99531.50
2022-12-16T01:12:38.556Z,99530.53
2022-12-16T01:17:42.893Z,99536.16
2022-12-16T01:22:45.684Z,99533.91
2022-12-16T01:27:48.571Z,99523.16
2022-12-16T01:32:52.661Z,99529.75
2022-12-16T01:37:55.376Z,99532.38
2022-12-16T01:42:58.286Z,99526.44
2022-12-16T01:48:05.653Z,99531.81
2022-12-16T01:53:08.585Z,99519.91
2022-12-16T01:58:14.319Z,99513.56
2022-12-16T02:03:18.560Z,99506.06
2022-12-16T02:08:21.440Z,99507.28
2022-12-16T02:13:29.625Z,99513.75
2022-12-16T02:18:43.127Z,99514.47
2022-12-16T02:24:02.858Z,99509.84
2022-12-16T02:29:20.927Z,99501.72
2022-12-16T02:34:31.810Z,99506.13
2022-12-16T02:39:39.045Z,99505.31
2022-12-16T02:44:47.489Z,99512.91
2022-12-16T02:49:53.550Z,99514.56
2022-12-16T02:55:01.470Z,99504.44
2022-12-16T03:00:07.391Z,99508.63
2022-12-16T03:05:16.123Z,99512.50
2022-12-16T03:10:21.135Z,99512.06
2022-12-16T03:15:26.434Z,99514.22
2022-12-16T03:20:34.356Z,99515.31
2022-12-16T03:25:38.584Z,99519.28
2022-12-16T03:30:45.842Z,99526.16
2022-12-16T03:35:52.161Z,99530.09
2022-12-16T03:40:56.327Z,99538.97
2022-12-16T03:46:03.021Z,99535.63
2022-12-16T03:51:07.486Z,99542.41
2022-12-16T03:56:10.548Z,99541.09
2022-12-16T04:01:13.517Z,99548.16
2022-12-16T04:06:18.698Z,99545.22
2022-12-16T04:11:39.048Z,99538.59
2022-12-16T04:16:59.233Z,99540.75
2022-12-16T04:22:20.981Z,99546.22
2022-12-16T04:27:27.637Z,99546.22
2022-12-16T04:32:52.187Z,99545.38
2022-12-16T04:38:13.807Z,99556.66
2022-12-16T04:43:34.621Z,99550.81
2022-12-16T04:48:55.305Z,99554.84
2022-12-16T04:54:16.934Z,99562.00
2022-12-16T04:59:37.145Z,99567.06
2022-12-16T05:04:57.609Z,99578.06
2022-12-16T05:10:19.030Z,99572.72
2022-12-16T05:15:39.400Z,99578.50
2022-12-16T05:20:59.826Z,99579.13
2022-12-16T05:26:21.587Z,99590.88
2022-12-16T05:31:41.829Z,99588.00
2022-12-16T05:37:02.454Z,99603.31
2022-12-16T05:42:24.365Z,99591.03
2022-12-16T05:47:45.259Z,99603.50
2022-12-16T05:53:08.825Z,99604.59
2022-12-16T05:58:30.258Z,99616.69
2022-12-16T06:03:50.703Z,99626.00
2022-12-16T06:09:11.205Z,99628.81
2022-12-16T06:14:32.803Z,99645.69
2022-12-16T06:19:52.927Z,99651.75
2022-12-16T06:25:13.159Z,99645.91
2022-12-16T06:30:34.795Z,99660.13
2022-12-16T06:35:55.000Z,99662.88
2022-12-16T06:41:20.742Z,99669.09
2022-12-16T06:46:42.043Z,99680.53
2022-12-16T06:52:02.426Z,99690.69
2022-12-16T06:57:22.645Z,99702.03
2022-12-16T07:02:44.358Z,99703.81
2022-12-16T07:08:08.312Z,99702.59
2022-12-16T07:13:28.534Z,99706.69
2022-12-16T07:18:49.967Z,99721.94
2022-12-16T07:24:10.200Z,99721.81
2022-12-16T07:29:30.317Z,99737.72
2022-12-16T07:34:52.318Z,99754.09
2022-12-16T07:40:12.528Z,99769.47
2022-12-16T07:45:32.083Z,99763.25
2022-12-16T07:50:53.721Z,99778.81
2022-12-16T07:56:12.959Z,99791.59
2022-12-16T08:01:33.869Z,99795.00
2022-12-16T08:06:55.592Z,99803.81
2022-12-16T08:12:15.966Z,99800.97
2022-12-16T08:17:41.377Z,99804.94
2022-12-16T08:23:02.782Z,99806.03
2022-12-16T08:28:23.474Z,99816.09
2022-12-16T08:33:43.772Z,99819.38
2022-12-16T08:39:19.742Z,99836.13
2022-12-16T08:44:40.053Z,99825.22
2022-12-16T08:50:02.162Z,99827.88
2022-12-16T08:55:29.528Z,99836.19
2022-12-16T09:00:50.041Z,99840.13
2022-12-16T09:06:10.828Z,99847.75
2022-12-16T09:11:47.278Z,99864.38
2022-12-16T09:17:07.839Z,99869.28
2022-12-16T09:22:29.842Z,99866.41
2022-12-16T09:27:51.580Z,99869.53
2022-12-16T09:33:11.824Z,99871.22
2022-12-16T09:38:32.479Z,99870.78
2022-12-16T09:44:05.277Z,99869.31
2022-12-16T09:49:33.339Z,99873.34
2022-12-16T09:54:56.054Z,99867.19
2022-12-16T10:00:19.568Z,99873.91
2022-12-16T10:05:48.442Z,99887.22
2022-12-16T10:11:14.775Z,99899.41
2022-12-16T10:16:41.835Z,99903.78
2022-12-16T10:22:07.312Z,99907.38
2022-12-16T10:27:32.848Z,99914.66
2022-12-16T10:32:58.545Z,99907.09
2022-12-16T10:38:19.083Z,99912.69
2022-12-16T10:43:44.711Z,99917.53
2022-12-16T10:49:06.668Z,99914.34
2022-12-16T10:54:43.298Z,99921.38
2022-12-16T11:00:07.811Z,99917.72
2022-12-16T11:05:49.057Z,99925.66
2022-12-16T11:11:09.485Z,99927.50
2022-12-16T11:16:33.083Z,99925.44
2022-12-16T11:21:54.642Z,99924.78
2022-12-16T11:27:16.701Z,99924.38
2022-12-16T11:32:39.056Z,99931.13
2022-12-16T11:38:01.320Z,99934.25
2022-12-16T11:43:22.789Z,99944.59
2022-12-16T11:48:52.445Z,99948.31
2022-12-16T11:54:18.257Z,99957.84
2022-12-16T11:59:43.787Z,99956.72
2022-12-16T12:05:06.912Z,99963.22
2022-12-16T12:10:36.920Z,99971.44
2022-12-16T12:16:03.243Z,99972.53
2022-12-16T12:21:29.320Z,99960.03
2022-12-16T12:26:52.213Z,99965.50
2022-12-16T12:32:21.341Z,99979.03
2022-12-16T12:37:45.136Z,99984.06
2022-12-16T12:43:09.274Z,99989.66
2022-12-16T12:48:34.282Z,99995.38
2022-12-16T12:54:01.156Z,99993.75
2022-12-16T12:59:37.521Z,99993.41
2022-12-16T13:04:58.044Z,100012.31
2022-12-16T13:10:36.835Z,100012.06
2022-12-16T13:15:59.086Z,100018.66
2022-12-16T13:21:19.301Z,100020.75
2022-12-16T13:26:41.366Z,100026.19
2022-12-16T13:32:18.377Z,100034.16
2022-12-16T13:37:42.012Z,100049.50
2022-12-16T13:43:11.317Z,100063.28
2022-12-16T13:48:51.431Z,100061.31
2022-12-16T13:54:12.600Z,100075.25
2022-12-16T13:59:32.211Z,100084.53
2022-12-16T14:04:56.672Z,100094.81
2022-12-16T14:10:16.910Z,100097.03
2022-12-16T14:15:41.669Z,100105.41
2022-12-16T14:21:07.393Z,100104.03
2022-12-16T14:26:30.259Z,100112.97
2022-12-16T14:31:55.176Z,100124.03
2022-12-16T14:37:22.275Z,100122.06
2022-12-16T14:42:45.951Z,100138.34
2022-12-16T14:48:06.461Z,100139.13
2022-12-16T14:53:39.019Z,100139.56
2022-12-16T14:58:59.680Z,100149.56
2022-12-16T15:04:22.454Z,100149.03
2022-12-16T15:09:46.849Z,100153.09
2022-12-16T15:15:07.671Z,100159.47
2022-12-16T15:20:34.925Z,100162.56
2022-12-16T15:26:02.113Z,100162.13
2022-12-16T15:31:32.808Z,100178.53
2022-12-16T15:36:55.115Z,100185.22
2022-12-16T15:42:16.619Z,100190.16
2022-12-16T15:47:44.825Z,100212.53
2022-12-16T15:53:04.939Z,100218.75
2022-12-16T15:58:32.738Z,100228.09
2022-12-16T16:03:53.579Z,100234.63
2022-12-16T16:09:13.661Z,100236.00
2022-12-16T16:14:35.148Z,100247.50
2022-12-16T16:20:00.137Z,100237.63
2022-12-16T16:25:24.613Z,100251.47
2022-12-16T16:30:46.522Z,100255.25
2022-12-16T16:36:06.811Z,100258.97
2022-12-16T16:41:34.707Z,100261.53
2022-12-16T16:46:57.801Z,100272.63
2022-12-16T16:52:14.802Z,100281.22
2022-12-16T16:57:35.620Z,100283.59
2022-12-16T17:02:57.218Z,100293.25
2022-12-16T17:08:17.459Z,100295.63
2022-12-16T17:13:39.988Z,100298.88
2022-12-16T17:19:01.464Z,100309.09
2022-12-16T17:24:22.278Z,100316.91
2022-12-16T17:29:43.260Z,100320.06
2022-12-16T17:35:04.737Z,100323.28
2022-12-16T17:40:25.921Z,100319.63
2022-12-16T17:45:45.980Z,100331.16
2022-12-16T17:51:07.987Z,100335.72
2022-12-16T17:56:28.225Z,100333.94
2022-12-16T18:01:48.617Z,100341.38
2022-12-16T18:07:10.417Z,100351.13
2022-12-16T18:12:30.687Z,100359.41
2022-12-16T18:17:50.955Z,100355.25
2022-12-16T18:23:12.839Z,100358.50
2022-12-16T18:28:33.276Z,100367.81
2022-12-16T18:33:53.432Z,100369.59
2022-12-16T18:39:15.068Z,100371.16
2022-12-16T18:44:35.343Z,100373.88
2022-12-16T18:49:55.476Z,100385.19
2022-12-16T18:55:16.976Z,100390.09
2022-12-16T19:00:37.177Z,100389.22
2022-12-16T19:05:57.665Z,100399.09
2022-12-16T19:11:19.118Z,100403.19
2022-12-16T19:16:39.720Z,100409.69
2022-12-16T19:22:00.223Z,100414.28
2022-12-16T19:27:21.869Z,100422.44
2022-12-16T19:32:42.276Z,100429.56
2022-12-16T19:38:02.746Z,100437.63
2022-12-16T19:43:24.280Z,100435.44
2022-12-16T19:48:44.715Z,100437.25
2022-12-16T19:54:05.651Z,100449.59
2022-12-16T19:59:27.024Z,100458.31
2022-12-16T20:04:47.257Z,100461.97
2022-12-16T20:10:07.521Z,100483.22
2022-12-16T20:15:29.370Z,100478.09
2022-12-16T20:20:49.935Z,100479.44
2022-12-16T20:26:14.110Z,100482.31
2022-12-16T20:31:35.798Z,100486.72
2022-12-16T20:36:55.834Z,100499.88
2022-12-16T20:42:16.500Z,100505.34
2022-12-16T20:47:38.187Z,100506.25
2022-12-16T20:52:58.526Z,100523.28
2022-12-16T20:58:19.197Z,100528.63
2022-12-16T21:03:41.334Z,100530.09
2022-12-16T21:09:02.091Z,100538.25
2022-12-16T21:14:22.762Z,100543.53
2022-12-16T21:19:44.396Z,100547.97
2022-12-16T21:25:04.781Z,100545.59
2022-12-16T21:30:26.385Z,100546.66
2022-12-16T21:35:47.872Z,100558.38
2022-12-16T21:41:09.840Z,100561.56
2022-12-16T21:46:30.420Z,100569.22
2022-12-16T21:51:51.039Z,100581.22
2022-12-16T21:57:12.189Z,100583.13
2022-12-16T22:02:33.137Z,100592.72
2022-12-16T22:13:36.263Z,100603.88
2022-12-16T22:18:56.823Z,100618.53
2022-12-16T22:24:18.642Z,100618.88
2022-12-16T22:29:38.631Z,100620.63
2022-12-16T22:34:58.916Z,100622.16
2022-12-16T22:40:20.652Z,100625.09
2022-12-16T22:45:41.206Z,100624.50
2022-12-16T22:51:01.968Z,100632.03
2022-12-16T22:56:24.120Z,100625.47
2022-12-16T23:01:45.244Z,100641.88
2022-12-16T23:07:05.733Z,100638.50
2022-12-16T23:12:27.656Z,100639.72
2022-12-16T23:17:47.776Z,100644.03
2022-12-16T23:23:08.081Z,100649.59
2022-12-16T23:28:29.563Z,100650.16
2022-12-16T23:33:53.017Z,100656.69
2022-12-16T23:39:17.520Z,100654.63
2022-12-16T23:44:39.071Z,100653.56
2022-12-16T23:49:56.749Z,100666.75
2022-12-16T23:55:17.247Z,100665.22
